createdAt,value
2018-12-04T00:01:47.523Z,1.90
2018-12-04T00:04:16.193Z,1.33
2018-12-04T00:06:46.080Z,0.50
2018-12-04T00:09:14.438Z,0.40
2018-12-04T00:11:42.693Z,3.17
2018-12-04T00:14:11.729Z,1.10
2018-12-04T00:16:41.341Z,1.73
2018-12-04T00:19:09.530Z,0.63
2018-12-04T00:21:37.762Z,2.10
2018-12-04T00:24:06.144Z,0.60
2018-12-04T00:26:34.626Z,0.97
2018-12-04T00:29:03.120Z,0.87
2018-12-04T00:31:31.313Z,2.90
2018-12-04T00:34:00.121Z,1.00
2018-12-04T00:36:28.953Z,1.57
2018-12-04T00:38:57.438Z,1.80
2018-12-04T00:41:25.841Z,3.60
2018-12-04T00:43:54.401Z,1.60
2018-12-04T00:46:23.102Z,0.40
2018-12-04T00:48:51.302Z,1.53
2018-12-04T00:51:19.854Z,1.53
2018-12-04T00:53:48.546Z,1.17
2018-12-04T00:56:17.146Z,1.23
2018-12-04T00:58:46.206Z,2.10
2018-12-04T01:01:15.193Z,1.53
2018-12-04T01:03:44.099Z,1.80
2018-12-04T01:06:14.889Z,1.13
2018-12-04T01:08:43.326Z,3.07
2018-12-04T01:11:12.259Z,3.50
2018-12-04T01:13:40.995Z,0.93
2018-12-04T01:16:09.585Z,1.07
2018-12-04T01:18:37.802Z,1.47
2018-12-04T01:21:06.078Z,2.87
2018-12-04T01:23:34.369Z,3.00
2018-12-04T01:26:02.921Z,1.30
2018-12-04T01:28:31.137Z,1.97
2018-12-04T01:31:00.263Z,2.10
2018-12-04T01:33:29.324Z,0.73
2018-12-04T01:35:57.900Z,2.83
2018-12-04T01:38:26.494Z,1.43
2018-12-04T01:40:54.733Z,0.97
2018-12-04T01:43:23.096Z,1.17
2018-12-04T01:45:51.393Z,1.23
2018-12-04T01:48:19.598Z,2.17
2018-12-04T01:50:47.833Z,1.50
2018-12-04T01:53:16.499Z,3.03
2018-12-04T01:55:44.823Z,1.30
2018-12-04T01:58:13.226Z,1.47
2018-12-04T02:00:41.457Z,3.27
2018-12-04T02:03:09.905Z,2.10
2018-12-04T02:05:38.943Z,1.23
2018-12-04T02:08:07.482Z,1.60
2018-12-04T02:10:36.140Z,2.00
2018-12-04T02:13:04.448Z,2.37
2018-12-04T02:15:33.261Z,2.23
2018-12-04T02:18:02.220Z,0.87
2018-12-04T02:20:31.119Z,1.50
2018-12-04T02:22:59.596Z,2.77
2018-12-04T02:25:28.298Z,1.23
2018-12-04T02:27:57.005Z,1.37
2018-12-04T02:30:25.304Z,1.97
2018-12-04T02:32:53.541Z,2.27
2018-12-04T02:35:22.244Z,3.80
2018-12-04T02:37:51.377Z,3.23
2018-12-04T02:40:20.346Z,2.40
2018-12-04T02:42:49.321Z,1.73
2018-12-04T02:45:18.004Z,1.90
2018-12-04T02:47:46.373Z,2.27
2018-12-04T02:50:14.963Z,1.77
2018-12-04T02:52:44.434Z,1.80
2018-12-04T02:55:13.213Z,2.07
2018-12-04T02:57:42.573Z,1.37
2018-12-04T03:00:11.118Z,0.60
2018-12-04T03:02:40.489Z,1.00
2018-12-04T03:05:09.161Z,3.50
2018-12-04T03:07:38.081Z,2.47
2018-12-04T03:10:07.992Z,1.17
2018-12-04T03:12:37.646Z,1.90
2018-12-04T03:15:06.937Z,1.63
2018-12-04T03:17:36.219Z,2.37
2018-12-04T03:20:05.387Z,2.63
2018-12-04T03:22:34.437Z,3.07
2018-12-04T03:25:03.256Z,2.20
2018-12-04T03:27:32.543Z,0.93
2018-12-04T03:30:00.760Z,2.67
2018-12-04T03:32:29.179Z,1.27
2018-12-04T03:34:58.052Z,1.47
2018-12-04T03:37:26.429Z,1.33
2018-12-04T03:39:54.653Z,0.67
2018-12-04T03:42:23.043Z,3.00
2018-12-04T03:44:51.781Z,1.17
2018-12-04T03:47:20.989Z,2.20
2018-12-04T03:49:50.743Z,1.17
2018-12-04T03:52:19.355Z,3.33
2018-12-04T03:54:47.865Z,0.80
2018-12-04T03:57:16.070Z,5.07
2018-12-04T03:59:44.615Z,2.60
2018-12-04T04:02:12.993Z,3.37
2018-12-04T04:04:41.580Z,12.17
2018-12-04T04:07:10.614Z,6.20
2018-12-04T04:09:38.832Z,3.83
2018-12-04T04:12:07.101Z,2.67
2018-12-04T04:15:08.141Z,1.60
2018-12-04T04:17:37.383Z,2.27
2018-12-04T04:20:06.835Z,1.10
2018-12-04T04:22:35.033Z,3.00
2018-12-04T04:25:04.321Z,1.03
2018-12-04T04:27:32.755Z,2.80
2018-12-04T04:30:01.082Z,3.47
2018-12-04T04:32:29.922Z,2.67
2018-12-04T04:34:59.130Z,2.17
2018-12-04T04:37:27.406Z,4.27
2018-12-04T04:39:55.666Z,3.00
2018-12-04T04:42:24.285Z,2.47
2018-12-04T04:44:53.613Z,3.07
2018-12-04T04:47:22.231Z,2.00
2018-12-04T04:49:51.573Z,5.33
2018-12-04T04:52:19.818Z,2.07
2018-12-04T04:54:48.289Z,2.17
2018-12-04T04:57:16.785Z,2.97
2018-12-04T04:59:45.582Z,1.23
2018-12-04T05:02:14.659Z,2.00
2018-12-04T05:04:43.126Z,2.20
2018-12-04T05:07:11.350Z,3.20
2018-12-04T05:09:40.637Z,1.70
2018-12-04T05:12:09.474Z,3.37
2018-12-04T05:14:38.233Z,2.50
2018-12-04T05:17:06.719Z,2.87
2018-12-04T05:19:35.518Z,2.20
2018-12-04T05:22:03.950Z,2.87
2018-12-04T05:24:32.769Z,1.87
2018-12-04T05:27:01.249Z,4.70
2018-12-04T05:29:29.494Z,2.33
2018-12-04T05:31:57.993Z,3.13
2018-12-04T05:34:26.700Z,3.73
2018-12-04T05:36:55.124Z,2.03
2018-12-04T05:39:23.883Z,1.63
2018-12-04T05:41:52.306Z,4.63
2018-12-04T05:44:20.690Z,4.27
2018-12-04T05:46:49.621Z,2.17
2018-12-04T05:49:21.396Z,3.63
2018-12-04T05:51:49.812Z,1.53
2018-12-04T05:54:18.008Z,2.00
2018-12-04T05:56:46.190Z,1.47
2018-12-04T05:59:16.185Z,1.60
2018-12-04T06:01:44.803Z,2.20
2018-12-04T06:04:13.948Z,2.10
2018-12-04T06:06:42.752Z,1.70
2018-12-04T06:09:11.009Z,1.97
2018-12-04T06:11:39.351Z,3.43
2018-12-04T06:14:07.598Z,2.63
2018-12-04T06:16:35.959Z,2.70
2018-12-04T06:19:04.701Z,2.87
2018-12-04T06:21:32.933Z,0.90
2018-12-04T06:24:01.302Z,1.80
2018-12-04T06:26:29.909Z,2.23
2018-12-04T06:28:58.471Z,5.20
2018-12-04T06:31:27.636Z,3.40
2018-12-04T06:33:56.152Z,1.60
2018-12-04T06:36:24.749Z,2.23
2018-12-04T06:38:53.069Z,2.00
2018-12-04T06:41:21.521Z,3.10
2018-12-04T06:43:49.913Z,2.40
2018-12-04T06:46:18.185Z,4.03
2018-12-04T06:48:47.501Z,4.10
2018-12-04T06:51:15.889Z,2.43
2018-12-04T06:53:44.386Z,2.67
2018-12-04T06:56:13.498Z,4.17
2018-12-04T06:58:42.032Z,3.43
2018-12-04T07:01:10.616Z,2.43
2018-12-04T07:03:38.924Z,3.43
2018-12-04T07:06:07.761Z,2.47
2018-12-04T07:08:36.262Z,1.73
2018-12-04T07:11:04.742Z,2.53
2018-12-04T07:13:33.107Z,2.93
2018-12-04T07:16:01.313Z,3.30
2018-12-04T07:18:29.695Z,4.13
2018-12-04T07:20:58.025Z,1.67
2018-12-04T07:23:26.948Z,2.57
2018-12-04T07:25:55.165Z,1.67
2018-12-04T07:28:23.802Z,1.67
2018-12-04T07:30:52.054Z,4.40
2018-12-04T07:33:20.289Z,6.43
2018-12-04T07:35:48.721Z,2.40
2018-12-04T07:38:17.049Z,2.83
2018-12-04T07:40:45.273Z,1.17
2018-12-04T07:43:13.598Z,3.27
2018-12-04T07:45:42.099Z,1.20
2018-12-04T07:48:10.350Z,7.80
2018-12-04T07:50:38.598Z,3.87
2018-12-04T07:53:06.841Z,8.93
2018-12-04T07:55:35.474Z,4.63
2018-12-04T07:58:03.910Z,8.93
2018-12-04T08:00:32.102Z,11.13
2018-12-04T08:03:00.542Z,10.03
2018-12-04T08:05:28.901Z,9.27
2018-12-04T08:07:57.582Z,24.00
2018-12-04T08:10:25.966Z,3.73
2018-12-04T08:12:54.390Z,8.30
2018-12-04T08:15:22.658Z,1.97
2018-12-04T08:17:50.842Z,9.80
2018-12-04T08:20:19.387Z,15.50
2018-12-04T08:22:47.854Z,21.10
2018-12-04T08:25:16.111Z,27.57
2018-12-04T08:27:44.361Z,17.07
2018-12-04T08:30:12.764Z,48.30
2018-12-04T08:32:40.962Z,11.23
2018-12-04T08:35:10.678Z,3.73
2018-12-04T08:37:38.886Z,4.13
2018-12-04T08:40:08.450Z,1.63
2018-12-04T08:42:37.055Z,2.00
2018-12-04T08:45:07.565Z,2.80
2018-12-04T08:47:35.768Z,2.83
2018-12-04T08:50:04.511Z,3.37
2018-12-04T08:52:34.214Z,9.50
2018-12-04T08:55:03.115Z,3.23
2018-12-04T08:57:32.018Z,7.80
2018-12-04T09:00:00.285Z,6.47
2018-12-04T09:02:28.578Z,6.87
2018-12-04T09:04:56.786Z,10.30
2018-12-04T09:07:25.474Z,14.60
2018-12-04T09:09:53.846Z,7.40
2018-12-04T09:12:22.053Z,12.67
2018-12-04T09:14:50.282Z,37.57
2018-12-04T09:17:18.681Z,16.23
2018-12-04T09:19:47.415Z,3.80
2018-12-04T09:22:16.385Z,8.13
2018-12-04T09:24:45.062Z,3.00
2018-12-04T09:27:13.767Z,1.23
2018-12-04T09:29:42.571Z,2.20
2018-12-04T09:32:11.058Z,10.73
2018-12-04T09:34:39.501Z,2.80
2018-12-04T09:37:07.741Z,1.83
2018-12-04T09:39:36.634Z,1.37
2018-12-04T09:42:05.224Z,9.60
2018-12-04T09:44:33.513Z,1.37
2018-12-04T09:47:01.740Z,1.37
2018-12-04T09:49:30.037Z,1.87
2018-12-04T09:51:58.301Z,1.60
2018-12-04T09:54:26.569Z,2.50
2018-12-04T09:56:54.930Z,8.27
2018-12-04T09:59:23.254Z,2.50
2018-12-04T10:01:52.702Z,1.97
2018-12-04T10:04:20.972Z,1.30
2018-12-04T10:06:49.205Z,1.43
2018-12-04T10:09:17.690Z,1.23
2018-12-04T10:11:46.114Z,2.30
2018-12-04T10:14:14.512Z,4.33
2018-12-04T10:16:43.114Z,1.70
2018-12-04T10:19:12.067Z,2.83
2018-12-04T10:21:40.646Z,2.73
2018-12-04T10:24:09.367Z,2.67
2018-12-04T10:26:37.746Z,1.20
2018-12-04T10:29:06.151Z,1.83
2018-12-04T10:31:34.430Z,1.70
2018-12-04T10:34:02.771Z,6.27
2018-12-04T10:36:31.178Z,11.33
2018-12-04T10:38:59.902Z,10.87
2018-12-04T10:41:29.094Z,5.27
2018-12-04T10:43:57.290Z,9.67
2018-12-04T10:46:25.673Z,5.50
2018-12-04T10:48:54.141Z,3.20
2018-12-04T10:51:22.502Z,1.97
2018-12-04T10:53:50.834Z,1.10
2018-12-04T10:56:19.165Z,4.37
2018-12-04T10:58:48.521Z,3.00
2018-12-04T11:01:25.199Z,16.70
2018-12-04T11:03:53.460Z,9.10
2018-12-04T11:06:22.336Z,12.30
2018-12-04T11:08:50.774Z,12.37
2018-12-04T11:11:19.011Z,7.60
2018-12-04T11:13:47.558Z,5.80
2018-12-04T11:16:15.817Z,2.57
2018-12-04T11:18:44.125Z,6.00
2018-12-04T11:21:12.585Z,2.57
2018-12-04T11:23:41.425Z,3.47
2018-12-04T11:26:09.933Z,3.27
2018-12-04T11:28:38.258Z,3.70
2018-12-04T11:31:06.638Z,3.00
2018-12-04T11:33:35.130Z,3.07
2018-12-04T11:36:03.491Z,2.40
2018-12-04T11:38:31.698Z,3.83
2018-12-04T11:41:00.082Z,1.80
2018-12-04T11:43:28.321Z,2.27
2018-12-04T11:45:56.634Z,7.23
2018-12-04T11:48:24.849Z,4.20
2018-12-04T11:50:53.205Z,2.77
2018-12-04T11:53:21.389Z,4.13
2018-12-04T11:55:49.837Z,3.57
2018-12-04T11:58:18.070Z,4.50
2018-12-04T12:00:46.785Z,4.83
2018-12-04T12:03:15.065Z,9.07
2018-12-04T12:05:43.626Z,7.17
2018-12-04T12:08:11.864Z,3.53
2018-12-04T12:10:40.250Z,8.50
2018-12-04T12:13:08.670Z,4.63
2018-12-04T12:15:36.897Z,1.83
2018-12-04T12:18:05.197Z,6.90
2018-12-04T12:20:33.491Z,1.90
2018-12-04T12:23:01.673Z,1.50
2018-12-04T12:25:30.141Z,1.47
2018-12-04T12:27:58.434Z,2.40
2018-12-04T12:30:26.766Z,2.80
2018-12-04T12:32:55.099Z,3.03
2018-12-04T12:35:23.333Z,1.87
2018-12-04T12:37:51.905Z,2.03
2018-12-04T12:40:20.349Z,3.70
2018-12-04T12:42:48.557Z,1.87
2018-12-04T12:45:16.742Z,4.73
2018-12-04T12:47:44.938Z,5.90
2018-12-04T12:50:13.446Z,2.80
2018-12-04T12:52:41.705Z,1.57
2018-12-04T12:55:09.914Z,3.17
2018-12-04T12:57:38.193Z,17.50
2018-12-04T13:00:08.436Z,4.73
2018-12-04T13:02:39.852Z,3.93
2018-12-04T13:05:08.330Z,2.70
2018-12-04T13:07:36.549Z,2.20
2018-12-04T13:10:06.529Z,3.03
2018-12-04T13:12:35.402Z,2.30
2018-12-04T13:15:04.354Z,5.63
2018-12-04T13:17:32.586Z,3.47
2018-12-04T13:20:02.400Z,1.47
2018-12-04T13:22:30.650Z,3.03
2018-12-04T13:24:59.017Z,2.60
2018-12-04T13:27:27.537Z,2.93
2018-12-04T13:29:55.859Z,5.57
2018-12-04T13:32:24.370Z,4.93
2018-12-04T13:34:52.707Z,2.60
2018-12-04T13:37:20.992Z,3.20
2018-12-04T13:39:49.532Z,5.63
2018-12-04T13:42:17.889Z,4.20
2018-12-04T13:44:46.373Z,4.10
2018-12-04T13:47:14.636Z,2.40
2018-12-04T13:49:43.055Z,4.83
2018-12-04T13:52:12.664Z,2.00
2018-12-04T13:54:41.385Z,2.43
2018-12-04T13:57:09.817Z,3.03
2018-12-04T13:59:38.178Z,1.90
2018-12-04T14:02:06.834Z,2.33
2018-12-04T14:04:42.121Z,3.17
2018-12-04T14:07:10.532Z,4.50
2018-12-04T14:09:38.981Z,2.03
2018-12-04T14:12:08.263Z,2.83
2018-12-04T14:14:36.522Z,3.83
2018-12-04T14:17:05.151Z,3.07
2018-12-04T14:19:33.879Z,2.50
2018-12-04T14:22:02.178Z,2.33
2018-12-04T14:24:30.418Z,2.13
2018-12-04T14:26:58.740Z,2.53
2018-12-04T14:29:27.054Z,2.73
2018-12-04T14:31:55.834Z,3.60
2018-12-04T14:34:24.179Z,4.27
2018-12-04T14:36:52.694Z,4.47
2018-12-04T14:39:20.994Z,4.13
2018-12-04T14:41:49.325Z,4.17
2018-12-04T14:44:17.554Z,3.53
2018-12-04T14:46:46.288Z,2.70
2018-12-04T14:49:14.574Z,3.50
2018-12-04T14:51:42.821Z,4.27
2018-12-04T14:54:11.222Z,6.10
2018-12-04T14:56:39.629Z,6.20
2018-12-04T14:59:07.882Z,13.07
2018-12-04T15:01:36.093Z,18.67
2018-12-04T15:04:04.428Z,35.27
2018-12-04T15:06:33.166Z,14.17
2018-12-04T15:09:01.767Z,18.37
2018-12-04T15:11:30.331Z,21.97
2018-12-04T15:13:58.940Z,4.63
2018-12-04T15:16:27.266Z,10.03
2018-12-04T15:18:55.669Z,9.67
2018-12-04T15:21:24.232Z,14.60
2018-12-04T15:23:52.518Z,12.90
2018-12-04T15:26:20.760Z,16.13
2018-12-04T15:28:49.826Z,6.30
2018-12-04T15:31:18.265Z,29.77
2018-12-04T15:33:46.622Z,5.07
2018-12-04T15:36:14.886Z,5.77
2018-12-04T15:38:43.362Z,3.00
2018-12-04T15:41:11.721Z,18.87
2018-12-04T15:43:40.046Z,4.93
2018-12-04T15:46:08.293Z,12.77
2018-12-04T15:48:36.906Z,21.63
2018-12-04T15:51:06.455Z,10.47
2018-12-04T15:53:36.399Z,6.47
2018-12-04T15:56:05.405Z,6.80
2018-12-04T15:58:34.061Z,5.50
2018-12-04T16:01:02.282Z,4.37
2018-12-04T16:03:30.845Z,5.47
2018-12-04T16:05:59.260Z,4.57
2018-12-04T16:08:28.630Z,3.83
2018-12-04T16:10:57.221Z,3.67
2018-12-04T16:13:25.848Z,8.27
2018-12-04T16:15:54.783Z,4.67
2018-12-04T16:18:23.137Z,5.33
2018-12-04T16:20:52.703Z,5.47
2018-12-04T16:23:21.443Z,6.80
2018-12-04T16:25:50.629Z,6.80
2018-12-04T16:28:19.270Z,5.43
2018-12-04T16:30:48.610Z,6.10
2018-12-04T16:33:16.991Z,5.50
2018-12-04T16:35:45.465Z,5.17
2018-12-04T16:38:14.522Z,5.37
2018-12-04T16:40:42.785Z,6.77
2018-12-04T16:43:11.125Z,8.90
2018-12-04T16:45:40.019Z,6.00
2018-12-04T16:48:08.275Z,7.60
2018-12-04T16:50:36.757Z,7.20
2018-12-04T16:53:05.313Z,6.30
2018-12-04T16:55:34.609Z,9.10
2018-12-04T16:58:02.939Z,9.80
2018-12-04T17:00:31.883Z,8.00
2018-12-04T17:03:01.181Z,6.10
2018-12-04T17:05:36.404Z,7.80
2018-12-04T17:08:04.639Z,8.63
2018-12-04T17:10:34.503Z,7.87
2018-12-04T17:13:07.099Z,7.87
2018-12-04T17:15:36.042Z,7.83
2018-12-04T17:18:04.531Z,7.40
2018-12-04T17:20:32.782Z,6.63
2018-12-04T17:23:01.050Z,9.33
2018-12-04T17:25:29.623Z,10.07
2018-12-04T17:27:58.387Z,9.43
2018-12-04T17:30:26.915Z,8.73
2018-12-04T17:32:56.199Z,8.13
2018-12-04T17:35:24.815Z,8.33
2018-12-04T17:37:53.442Z,8.87
2018-12-04T17:40:22.141Z,14.27
2018-12-04T17:42:50.428Z,12.03
2018-12-04T17:45:19.318Z,11.63
2018-12-04T17:47:47.590Z,10.43
2018-12-04T17:50:16.013Z,10.73
2018-12-04T17:52:45.011Z,8.40
2018-12-04T17:55:13.721Z,7.97
2018-12-04T17:57:42.125Z,10.03
2018-12-04T18:00:12.457Z,9.13
2018-12-04T18:02:41.120Z,12.83
2018-12-04T18:05:10.177Z,15.23
2018-12-04T18:07:38.498Z,15.17
2018-12-04T18:10:09.546Z,11.57
2018-12-04T18:12:37.977Z,12.00
2018-12-04T18:15:08.460Z,10.03
2018-12-04T18:17:36.745Z,10.37
2018-12-04T18:20:05.617Z,8.87
2018-12-04T18:22:33.976Z,9.20
2018-12-04T18:25:02.334Z,11.10
2018-12-04T18:27:30.843Z,14.83
2018-12-04T18:29:59.990Z,10.83
2018-12-04T18:32:29.245Z,14.13
2018-12-04T18:34:57.616Z,11.90
2018-12-04T18:37:26.116Z,14.00
2018-12-04T18:39:54.385Z,12.83
2018-12-04T18:42:23.229Z,10.43
2018-12-04T18:44:52.186Z,10.83
2018-12-04T18:47:20.645Z,17.40
2018-12-04T18:49:49.878Z,12.77
2018-12-04T18:52:18.745Z,15.67
2018-12-04T18:54:47.510Z,16.50
2018-12-04T18:57:16.257Z,16.47
2018-12-04T18:59:45.410Z,15.47
2018-12-04T19:02:13.748Z,14.63
2018-12-04T19:04:43.158Z,21.20
2018-12-04T19:07:11.839Z,15.00
2018-12-04T19:09:40.510Z,13.13
2018-12-04T19:12:08.861Z,13.00
2018-12-04T19:14:37.147Z,15.87
2018-12-04T19:17:05.553Z,17.00
2018-12-04T19:19:34.556Z,16.10
2018-12-04T19:22:04.150Z,15.13
2018-12-04T19:24:32.526Z,12.97
2018-12-04T19:27:01.407Z,13.77
2018-12-04T19:29:30.015Z,11.67
2018-12-04T19:31:58.814Z,9.43
2018-12-04T19:34:27.309Z,8.37
2018-12-04T19:36:56.179Z,9.07
2018-12-04T19:39:24.886Z,9.40
2018-12-04T19:41:53.942Z,8.03
2018-12-04T19:44:23.108Z,8.40
2018-12-04T19:46:52.160Z,11.17
2018-12-04T19:49:20.683Z,7.73
2018-12-04T19:51:49.439Z,8.57
2018-12-04T19:54:18.182Z,6.87
2018-12-04T19:56:46.517Z,7.93
2018-12-04T19:59:15.397Z,8.50
2018-12-04T20:01:44.270Z,6.57
2018-12-04T20:04:12.931Z,7.03
2018-12-04T20:06:42.473Z,6.27
2018-12-04T20:09:11.892Z,8.07
2018-12-04T20:11:40.847Z,9.03
2018-12-04T20:14:09.199Z,8.10
2018-12-04T20:16:38.146Z,9.00
2018-12-04T20:19:06.711Z,10.37
2018-12-04T20:21:35.294Z,7.20
2018-12-04T20:24:04.024Z,7.47
2018-12-04T20:26:32.780Z,6.83
2018-12-04T20:29:01.298Z,7.17
2018-12-04T20:31:30.047Z,7.53
2018-12-04T20:33:58.572Z,8.10
2018-12-04T20:36:26.856Z,7.80
2018-12-04T20:38:55.729Z,10.97
2018-12-04T20:41:24.229Z,7.20
2018-12-04T20:43:53.837Z,8.03
2018-12-04T20:46:22.496Z,6.93
2018-12-04T20:48:51.272Z,9.37
2018-12-04T20:51:19.875Z,8.60
2018-12-04T20:53:48.653Z,9.13
2018-12-04T20:56:17.142Z,9.10
2018-12-04T20:58:46.679Z,8.90
2018-12-04T21:01:15.387Z,7.50
2018-12-04T21:03:43.990Z,7.80
2018-12-04T21:06:12.539Z,8.40
2018-12-04T21:08:43.320Z,7.70
2018-12-04T21:11:12.431Z,7.73
2018-12-04T21:13:41.349Z,12.37
2018-12-04T21:16:10.295Z,13.43
2018-12-04T21:18:40.074Z,12.00
2018-12-04T21:21:08.945Z,12.57
2018-12-04T21:23:37.877Z,10.67
2018-12-04T21:26:06.786Z,10.40
2018-12-04T21:28:35.617Z,13.63
2018-12-04T21:31:09.819Z,18.20
2018-12-04T21:33:44.198Z,19.40
2018-12-04T21:36:18.352Z,13.70
2018-12-04T21:38:53.503Z,12.70
2018-12-04T21:41:28.061Z,12.30
2018-12-04T21:44:02.083Z,9.30
2018-12-04T21:46:36.388Z,9.23
2018-12-04T21:49:06.118Z,10.20
2018-12-04T21:51:35.590Z,11.83
2018-12-04T21:54:04.561Z,9.83
2018-12-04T21:56:34.264Z,9.67
2018-12-04T21:59:03.220Z,10.40
2018-12-04T22:01:31.462Z,13.63
2018-12-04T22:03:59.709Z,7.87
2018-12-04T22:06:28.977Z,7.07
2018-12-04T22:08:58.332Z,6.10
2018-12-04T22:11:26.666Z,6.63
2018-12-04T22:13:55.893Z,7.47
2018-12-04T22:16:24.169Z,7.13
2018-12-04T22:18:52.870Z,8.60
2018-12-04T22:21:21.108Z,6.93
2018-12-04T22:23:49.600Z,9.63
2018-12-04T22:26:18.419Z,10.73
2018-12-04T22:28:47.063Z,8.13
2018-12-04T22:31:15.406Z,11.20
2018-12-04T22:33:44.083Z,8.20
2018-12-04T22:36:12.722Z,9.03
2018-12-04T22:38:41.552Z,9.63
2018-12-04T22:41:10.532Z,7.77
2018-12-04T22:43:39.281Z,9.40
2018-12-04T22:46:07.722Z,9.07
2018-12-04T22:48:36.375Z,10.33
2018-12-04T22:51:05.804Z,9.63
2018-12-04T22:53:34.063Z,9.53
2018-12-04T22:56:03.419Z,10.30
2018-12-04T22:58:32.080Z,21.43
2018-12-04T23:01:00.442Z,24.40
2018-12-04T23:03:29.031Z,26.80
2018-12-04T23:05:57.494Z,25.20
2018-12-04T23:08:25.739Z,26.70
2018-12-04T23:10:54.236Z,14.37
2018-12-04T23:13:22.466Z,11.67
2018-12-04T23:15:50.711Z,9.33
2018-12-04T23:18:19.094Z,8.47
2018-12-04T23:20:47.476Z,8.97
2018-12-04T23:23:16.150Z,10.50
2018-12-04T23:25:44.597Z,9.63
2018-12-04T23:28:13.048Z,9.23
2018-12-04T23:30:42.338Z,14.27
2018-12-04T23:33:11.645Z,8.50
2018-12-04T23:35:40.473Z,8.20
2018-12-04T23:38:09.373Z,8.77
2018-12-04T23:40:38.282Z,9.97
2018-12-04T23:43:06.726Z,9.13
2018-12-04T23:45:35.730Z,7.60
2018-12-04T23:48:04.625Z,8.10
2018-12-04T23:50:32.962Z,7.87
2018-12-04T23:53:01.633Z,8.83
2018-12-04T23:55:29.966Z,8.43
2018-12-04T23:57:59.797Z,10.93
